createdAt,value
2019-01-14T00:00:13.562Z,93764.36
2019-01-14T01:02:15.443Z,93836.67
2019-01-14T01:07:16.786Z,93841.08
2019-01-14T01:12:18.091Z,93862.65
2019-01-14T01:17:19.497Z,93863.50
2019-01-14T01:22:20.877Z,93862.64
2019-01-14T01:27:22.928Z,93894.93
2019-01-14T02:35:46.691Z,93957.83
2019-01-14T02:40:48.063Z,93970.40
2019-01-14T02:45:49.363Z,93983.03
2019-01-14T02:50:50.673Z,93974.52
2019-01-14T02:55:53.153Z,93977.20
2019-01-14T04:04:18.385Z,94046.95
2019-01-14T04:09:19.685Z,94053.45
2019-01-14T04:14:20.980Z,94074.88
2019-01-14T04:19:22.346Z,94067.76
2019-01-14T04:24:23.690Z,94062.69
2019-01-14T04:29:25.033Z,94074.21
2019-01-14T05:31:29.209Z,94162.73
2019-01-14T05:36:30.643Z,94164.33
2019-01-14T05:41:32.083Z,94169.89
2019-01-14T05:46:33.596Z,94174.23
2019-01-14T05:51:35.066Z,94167.22
2019-01-14T05:56:37.249Z,94175.30
2019-01-14T07:05:01.513Z,94283.73
2019-01-14T07:10:05.663Z,94320.20
2019-01-14T07:15:07.800Z,94304.81
2019-01-14T07:20:09.157Z,94308.09
2019-01-14T07:25:10.537Z,94303.81
2019-01-14T07:30:13.678Z,94306.55
2019-01-14T08:32:17.103Z,94413.66
2019-01-14T08:37:18.517Z,94425.37
2019-01-14T08:42:19.875Z,94405.05
2019-01-14T08:47:21.193Z,94407.69
2019-01-14T08:52:22.506Z,94422.92
2019-01-14T08:57:23.805Z,94439.39
2019-01-14T10:05:48.054Z,94468.77
2019-01-14T10:10:49.364Z,94457.20
2019-01-14T10:15:50.667Z,94479.79
2019-01-14T10:20:52.724Z,94477.33
2019-01-14T10:25:54.063Z,94456.95
2019-01-14T11:34:17.677Z,94430.78
2019-01-14T11:39:19.739Z,94432.53
2019-01-14T11:44:21.024Z,94404.40
2019-01-14T11:49:23.102Z,94414.00
2019-01-14T11:54:25.170Z,94407.78
2019-01-14T11:59:27.210Z,94416.20
2019-01-14T13:01:32.258Z,94430.95
2019-01-14T13:06:33.577Z,94415.39
2019-01-14T13:11:35.629Z,94414.87
2019-01-14T13:16:36.982Z,94401.77
2019-01-14T13:21:38.280Z,94430.80
2019-01-14T13:26:39.573Z,94425.14
2019-01-14T14:35:02.905Z,94582.27
2019-01-14T14:40:04.254Z,94599.70
2019-01-14T14:45:07.550Z,94586.21
2019-01-14T14:50:11.710Z,94608.04
2019-01-14T14:55:13.031Z,94643.16
2019-01-14T15:00:15.911Z,94638.67
2019-01-14T16:02:20.125Z,94768.48
2019-01-14T16:07:21.456Z,94770.05
2019-01-14T16:12:22.745Z,94781.11
2019-01-14T16:17:25.043Z,94779.91
2019-01-14T16:22:27.227Z,94810.06
2019-01-14T16:27:28.513Z,94818.92
2019-01-14T16:32:29.819Z,94826.18
2019-01-14T16:37:31.120Z,94836.36
2019-01-14T16:42:32.436Z,94868.12
2019-01-14T16:47:33.733Z,94878.03
2019-01-14T16:52:35.028Z,94881.63
2019-01-14T16:57:36.348Z,94900.83
2019-01-14T17:02:37.655Z,94915.81
2019-01-14T17:07:39.708Z,94923.44
2019-01-14T17:12:41.088Z,94936.52
2019-01-14T17:17:42.408Z,94945.16
2019-01-14T17:22:43.695Z,94956.48
2019-01-14T17:27:45.338Z,94958.61
2019-01-14T17:32:48.723Z,94963.83
2019-01-14T17:37:50.036Z,94977.99
2019-01-14T17:42:51.552Z,94977.13
2019-01-14T17:47:53.648Z,94991.30
2019-01-14T17:52:55.142Z,94986.63
2019-01-14T17:57:56.737Z,94989.23
2019-01-14T18:02:58.803Z,95008.61
2019-01-14T18:08:00.895Z,95013.66
2019-01-14T18:13:04.100Z,95033.46
2019-01-14T18:18:11.339Z,95033.25
2019-01-14T18:23:13.416Z,95073.66
2019-01-14T18:28:15.457Z,95068.16
2019-01-14T18:33:16.769Z,95068.70
2019-01-14T18:38:18.897Z,95086.28
2019-01-14T18:43:21.696Z,95084.91
2019-01-14T18:48:23.164Z,95082.47
2019-01-14T18:53:28.499Z,95084.40
2019-01-14T18:58:33.104Z,95082.97
2019-01-14T19:03:49.390Z,95089.14
2019-01-14T19:08:56.119Z,95083.00
2019-01-14T19:14:00.447Z,95087.59
2019-01-14T19:19:05.080Z,95100.97
2019-01-14T19:24:07.436Z,95088.42
2019-01-14T19:29:08.851Z,95095.29
2019-01-14T19:34:16.068Z,95114.89
2019-01-14T19:39:18.487Z,95108.27
2019-01-14T19:44:19.880Z,95125.69
2019-01-14T19:49:21.260Z,95135.64
2019-01-14T19:54:27.269Z,95142.90
2019-01-14T19:59:32.236Z,95149.25
2019-01-14T20:04:40.499Z,95164.38
2019-01-14T20:09:42.622Z,95153.96
2019-01-14T20:14:52.110Z,95162.43
2019-01-14T20:19:53.866Z,95187.55
2019-01-14T20:24:55.236Z,95166.09
2019-01-14T20:29:56.601Z,95169.03
2019-01-14T20:35:00.205Z,95172.11
2019-01-14T20:40:04.206Z,95197.70
2019-01-14T20:45:08.764Z,95165.47
2019-01-14T20:50:10.419Z,95172.50
2019-01-14T20:55:11.859Z,95183.87
2019-01-14T21:00:16.254Z,95160.18
2019-01-14T21:05:17.632Z,95184.63
2019-01-14T21:10:20.088Z,95189.27
2019-01-14T21:15:25.122Z,95175.44
2019-01-14T21:20:29.408Z,95200.11
2019-01-14T21:25:34.510Z,95196.81
2019-01-14T21:30:35.916Z,95247.77
2019-01-14T21:35:37.268Z,95227.78
2019-01-14T21:40:38.614Z,95228.50
2019-01-14T21:45:39.977Z,95236.84
2019-01-14T21:50:41.288Z,95253.28
2019-01-14T21:55:42.608Z,95256.61
2019-01-14T22:00:43.979Z,95277.66
2019-01-14T22:05:47.418Z,95277.36
2019-01-14T22:10:48.903Z,95281.67
2019-01-14T22:15:51.093Z,95298.00
2019-01-14T22:20:58.797Z,95302.40
2019-01-14T22:26:04.424Z,95309.27
2019-01-14T22:31:07.905Z,95307.23
2019-01-14T22:36:09.234Z,95305.23
2019-01-14T22:41:10.671Z,95310.03
2019-01-14T22:46:12.035Z,95334.81
2019-01-14T22:51:13.550Z,95331.02
2019-01-14T22:56:19.067Z,95335.56
2019-01-14T23:33:01.680Z,95373.91
2019-01-14T23:38:02.993Z,95380.33
2019-01-14T23:43:04.324Z,95386.95
2019-01-14T23:48:06.424Z,95386.64
2019-01-14T23:53:07.747Z,95384.45
2019-01-14T23:58:09.086Z,95399.17
